sensor_id;sensor_type;location;lat;lon;timestamp;P1;durP1;ratioP1;P2;durP2;ratioP2
37407;SDS011;24866;50.248;8.252;2023-02-17T00:02:14;13.57;;;8.07;;
37407;SDS011;24866;50.248;8.252;2023-02-17T00:04:45;12.82;;;7.68;;
37407;SDS011;24866;50.248;8.252;2023-02-17T00:07:16;15.45;;;8.05;;
37407;SDS011;24866;50.248;8.252;2023-02-17T00:09:46;11.10;;;6.97;;
37407;SDS011;24866;50.248;8.252;2023-02-17T00:12:17;11.60;;;7.53;;
37407;SDS011;24866;50.248;8.252;2023-02-17T00:14:47;13.95;;;8.00;;
37407;SDS011;24866;50.248;8.252;2023-02-17T00:17:17;13.85;;;7.07;;
37407;SDS011;24866;50.248;8.252;2023-02-17T00:19:47;12.57;;;7.22;;
37407;SDS011;24866;50.248;8.252;2023-02-17T00:22:18;16.23;;;7.72;;
37407;SDS011;24866;50.248;8.252;2023-02-17T00:24:48;15.73;;;8.20;;
37407;SDS011;24866;50.248;8.252;2023-02-17T00:27:18;12.52;;;7.32;;
37407;SDS011;24866;50.248;8.252;2023-02-17T00:29:48;11.77;;;7.50;;
37407;SDS011;24866;50.248;8.252;2023-02-17T00:32:18;12.38;;;6.95;;
37407;SDS011;24866;50.248;8.252;2023-02-17T00:34:47;12.63;;;7.95;;
37407;SDS011;24866;50.248;8.252;2023-02-17T00:37:19;18.05;;;8.60;;
37407;SDS011;24866;50.248;8.252;2023-02-17T00:39:49;15.18;;;6.88;;
37407;SDS011;24866;50.248;8.252;2023-02-17T00:42:19;10.75;;;7.35;;
37407;SDS011;24866;50.248;8.252;2023-02-17T00:44:48;12.60;;;6.45;;
37407;SDS011;24866;50.248;8.252;2023-02-17T00:47:18;12.85;;;7.32;;
37407;SDS011;24866;50.248;8.252;2023-02-17T00:49:48;12.15;;;8.70;;
37407;SDS011;24866;50.248;8.252;2023-02-17T00:52:19;15.77;;;8.52;;
37407;SDS011;24866;50.248;8.252;2023-02-17T00:54:50;9.93;;;6.78;;
37407;SDS011;24866;50.248;8.252;2023-02-17T00:57:19;12.77;;;7.40;;
37407;SDS011;24866;50.248;8.252;2023-02-17T00:59:49;11.18;;;7.07;;
37407;SDS011;24866;50.248;8.252;2023-02-17T01:02:19;10.60;;;7.13;;
37407;SDS011;24866;50.248;8.252;2023-02-17T01:04:49;14.52;;;7.32;;
37407;SDS011;24866;50.248;8.252;2023-02-17T01:07:21;14.00;;;7.38;;
37407;SDS011;24866;50.248;8.252;2023-02-17T01:09:51;10.48;;;6.63;;
37407;SDS011;24866;50.248;8.252;2023-02-17T01:12:20;14.55;;;7.00;;
37407;SDS011;24866;50.248;8.252;2023-02-17T01:14:50;11.18;;;7.68;;
37407;SDS011;24866;50.248;8.252;2023-02-17T01:17:20;13.38;;;7.70;;
37407;SDS011;24866;50.248;8.252;2023-02-17T01:19:50;12.60;;;7.90;;
37407;SDS011;24866;50.248;8.252;2023-02-17T01:22:21;11.85;;;7.75;;
37407;SDS011;24866;50.248;8.252;2023-02-17T01:24:51;12.45;;;6.97;;
37407;SDS011;24866;50.248;8.252;2023-02-17T01:27:21;11.55;;;7.60;;
37407;SDS011;24866;50.248;8.252;2023-02-17T01:29:51;11.32;;;7.65;;
37407;SDS011;24866;50.248;8.252;2023-02-17T01:32:21;9.13;;;6.95;;
37407;SDS011;24866;50.248;8.252;2023-02-17T01:34:51;11.85;;;7.57;;
37407;SDS011;24866;50.248;8.252;2023-02-17T01:37:22;12.13;;;7.40;;
37407;SDS011;24866;50.248;8.252;2023-02-17T01:39:52;11.23;;;7.88;;
37407;SDS011;24866;50.248;8.252;2023-02-17T01:42:22;10.55;;;7.07;;
37407;SDS011;24866;50.248;8.252;2023-02-17T01:45:23;13.00;;;7.80;;
37407;SDS011;24866;50.248;8.252;2023-02-17T01:48:05;11.88;;;7.88;;
37407;SDS011;24866;50.248;8.252;2023-02-17T01:50:40;12.25;;;8.48;;
37407;SDS011;24866;50.248;8.252;2023-02-17T01:53:19;13.57;;;7.93;;
37407;SDS011;24866;50.248;8.252;2023-02-17T01:55:52;9.43;;;6.63;;
37407;SDS011;24866;50.248;8.252;2023-02-17T01:58:24;9.80;;;6.97;;
37407;SDS011;24866;50.248;8.252;2023-02-17T02:00:55;12.27;;;7.65;;
37407;SDS011;24866;50.248;8.252;2023-02-17T02:03:29;15.82;;;8.20;;
37407;SDS011;24866;50.248;8.252;2023-02-17T02:06:03;11.95;;;7.80;;
37407;SDS011;24866;50.248;8.252;2023-02-17T02:11:26;12.98;;;7.55;;
37407;SDS011;24866;50.248;8.252;2023-02-17T02:13:56;12.48;;;7.88;;
37407;SDS011;24866;50.248;8.252;2023-02-17T02:16:28;10.57;;;6.90;;
37407;SDS011;24866;50.248;8.252;2023-02-17T02:19:08;12.70;;;6.85;;
37407;SDS011;24866;50.248;8.252;2023-02-17T02:21:58;13.02;;;7.75;;
37407;SDS011;24866;50.248;8.252;2023-02-17T02:24:51;12.85;;;9.10;;
37407;SDS011;24866;50.248;8.252;2023-02-17T02:30:33;13.27;;;7.90;;
37407;SDS011;24866;50.248;8.252;2023-02-17T02:33:27;12.85;;;6.35;;
37407;SDS011;24866;50.248;8.252;2023-02-17T02:36:03;12.18;;;6.50;;
37407;SDS011;24866;50.248;8.252;2023-02-17T02:38:40;13.35;;;8.15;;
37407;SDS011;24866;50.248;8.252;2023-02-17T02:41:14;11.50;;;7.20;;
37407;SDS011;24866;50.248;8.252;2023-02-17T02:43:47;10.50;;;7.07;;
37407;SDS011;24866;50.248;8.252;2023-02-17T02:46:17;11.20;;;7.50;;
37407;SDS011;24866;50.248;8.252;2023-02-17T02:48:49;11.25;;;6.88;;
37407;SDS011;24866;50.248;8.252;2023-02-17T02:51:23;11.82;;;8.13;;
37407;SDS011;24866;50.248;8.252;2023-02-17T02:57:04;10.57;;;6.50;;
37407;SDS011;24866;50.248;8.252;2023-02-17T02:59:51;9.68;;;6.85;;
37407;SDS011;24866;50.248;8.252;2023-02-17T03:02:33;9.55;;;6.57;;
37407;SDS011;24866;50.248;8.252;2023-02-17T03:05:09;11.18;;;7.15;;
37407;SDS011;24866;50.248;8.252;2023-02-17T03:07:43;9.95;;;7.13;;
37407;SDS011;24866;50.248;8.252;2023-02-17T03:10:17;11.25;;;6.78;;
37407;SDS011;24866;50.248;8.252;2023-02-17T03:12:47;15.95;;;7.15;;
37407;SDS011;24866;50.248;8.252;2023-02-17T03:15:17;10.23;;;6.85;;
37407;SDS011;24866;50.248;8.252;2023-02-17T03:17:52;12.90;;;6.35;;
37407;SDS011;24866;50.248;8.252;2023-02-17T03:25:27;10.20;;;5.47;;
37407;SDS011;24866;50.248;8.252;2023-02-17T03:27:57;10.65;;;6.72;;
37407;SDS011;24866;50.248;8.252;2023-02-17T03:30:27;9.23;;;5.75;;
37407;SDS011;24866;50.248;8.252;2023-02-17T03:32:57;13.02;;;6.90;;
37407;SDS011;24866;50.248;8.252;2023-02-17T03:35:29;9.30;;;5.90;;
37407;SDS011;24866;50.248;8.252;2023-02-17T03:37:59;7.80;;;5.35;;
37407;SDS011;24866;50.248;8.252;2023-02-17T03:40:29;8.48;;;6.10;;
37407;SDS011;24866;50.248;8.252;2023-02-17T03:42:59;8.38;;;5.60;;
37407;SDS011;24866;50.248;8.252;2023-02-17T03:45:29;11.95;;;6.40;;
37407;SDS011;24866;50.248;8.252;2023-02-17T03:47:59;9.52;;;6.20;;
37407;SDS011;24866;50.248;8.252;2023-02-17T03:50:30;9.45;;;6.15;;
37407;SDS011;24866;50.248;8.252;2023-02-17T03:53:00;10.95;;;5.63;;
37407;SDS011;24866;50.248;8.252;2023-02-17T03:55:31;7.68;;;5.25;;
37407;SDS011;24866;50.248;8.252;2023-02-17T03:58:01;9.07;;;5.63;;
37407;SDS011;24866;50.248;8.252;2023-02-17T04:00:31;7.82;;;5.15;;
37407;SDS011;24866;50.248;8.252;2023-02-17T04:03:01;8.45;;;5.03;;
37407;SDS011;24866;50.248;8.252;2023-02-17T04:05:32;8.13;;;4.97;;
37407;SDS011;24866;50.248;8.252;2023-02-17T04:08:02;7.63;;;4.47;;
37407;SDS011;24866;50.248;8.252;2023-02-17T04:10:32;8.27;;;4.93;;
37407;SDS011;24866;50.248;8.252;2023-02-17T04:13:02;7.68;;;4.57;;
37407;SDS011;24866;50.248;8.252;2023-02-17T04:15:32;7.63;;;4.35;;
37407;SDS011;24866;50.248;8.252;2023-02-17T04:18:02;6.38;;;4.65;;
37407;SDS011;24866;50.248;8.252;2023-02-17T04:20:33;8.00;;;5.80;;
37407;SDS011;24866;50.248;8.252;2023-02-17T04:23:03;7.75;;;4.57;;
37407;SDS011;24866;50.248;8.252;2023-02-17T04:25:33;7.32;;;4.90;;
37407;SDS011;24866;50.248;8.252;2023-02-17T04:28:04;9.02;;;4.97;;
37407;SDS011;24866;50.248;8.252;2023-02-17T04:30:34;7.00;;;4.38;;
37407;SDS011;24866;50.248;8.252;2023-02-17T04:33:04;6.68;;;4.05;;
37407;SDS011;24866;50.248;8.252;2023-02-17T04:35:35;7.15;;;4.28;;
37407;SDS011;24866;50.248;8.252;2023-02-17T04:38:05;14.50;;;4.93;;
37407;SDS011;24866;50.248;8.252;2023-02-17T04:40:35;6.18;;;4.32;;
37407;SDS011;24866;50.248;8.252;2023-02-17T04:43:06;6.03;;;3.45;;
37407;SDS011;24866;50.248;8.252;2023-02-17T04:45:36;9.18;;;4.45;;
37407;SDS011;24866;50.248;8.252;2023-02-17T04:48:06;6.65;;;4.57;;
37407;SDS011;24866;50.248;8.252;2023-02-17T04:50:37;5.93;;;4.28;;
37407;SDS011;24866;50.248;8.252;2023-02-17T04:53:07;6.43;;;3.50;;
37407;SDS011;24866;50.248;8.252;2023-02-17T04:55:37;5.30;;;4.13;;
37407;SDS011;24866;50.248;8.252;2023-02-17T04:58:08;7.13;;;4.18;;
37407;SDS011;24866;50.248;8.252;2023-02-17T05:00:38;6.40;;;3.88;;
37407;SDS011;24866;50.248;8.252;2023-02-17T05:03:08;4.85;;;3.38;;
37407;SDS011;24866;50.248;8.252;2023-02-17T05:05:40;5.35;;;3.20;;
37407;SDS011;24866;50.248;8.252;2023-02-17T05:08:10;4.03;;;2.83;;
37407;SDS011;24866;50.248;8.252;2023-02-17T05:10:39;5.07;;;3.03;;
37407;SDS011;24866;50.248;8.252;2023-02-17T05:13:09;3.45;;;2.20;;
37407;SDS011;24866;50.248;8.252;2023-02-17T05:15:39;4.03;;;2.38;;
37407;SDS011;24866;50.248;8.252;2023-02-17T05:18:11;3.27;;;2.13;;
37407;SDS011;24866;50.248;8.252;2023-02-17T05:20:43;3.58;;;2.20;;
37407;SDS011;24866;50.248;8.252;2023-02-17T05:23:13;3.25;;;2.15;;
37407;SDS011;24866;50.248;8.252;2023-02-17T05:25:42;5.28;;;2.67;;
37407;SDS011;24866;50.248;8.252;2023-02-17T05:28:12;5.43;;;2.50;;
37407;SDS011;24866;50.248;8.252;2023-02-17T05:33:16;3.78;;;2.20;;
37407;SDS011;24866;50.248;8.252;2023-02-17T05:35:47;3.60;;;2.30;;
37407;SDS011;24866;50.248;8.252;2023-02-17T05:38:17;4.22;;;2.60;;
37407;SDS011;24866;50.248;8.252;2023-02-17T05:40:48;3.90;;;2.10;;
37407;SDS011;24866;50.248;8.252;2023-02-17T05:43:18;3.13;;;2.10;;
37407;SDS011;24866;50.248;8.252;2023-02-17T05:45:48;3.67;;;2.40;;
37407;SDS011;24866;50.248;8.252;2023-02-17T05:48:18;2.42;;;1.65;;
37407;SDS011;24866;50.248;8.252;2023-02-17T05:50:49;2.78;;;1.80;;
37407;SDS011;24866;50.248;8.252;2023-02-17T05:53:19;3.72;;;2.10;;
37407;SDS011;24866;50.248;8.252;2023-02-17T05:55:49;3.15;;;1.95;;
37407;SDS011;24866;50.248;8.252;2023-02-17T05:58:19;2.53;;;1.75;;
37407;SDS011;24866;50.248;8.252;2023-02-17T06:00:49;3.33;;;2.17;;
37407;SDS011;24866;50.248;8.252;2023-02-17T06:03:19;3.20;;;1.92;;
37407;SDS011;24866;50.248;8.252;2023-02-17T06:05:50;3.55;;;2.00;;
37407;SDS011;24866;50.248;8.252;2023-02-17T06:08:20;3.05;;;1.90;;
37407;SDS011;24866;50.248;8.252;2023-02-17T06:10:51;4.13;;;2.40;;
37407;SDS011;24866;50.248;8.252;2023-02-17T06:13:21;5.22;;;2.45;;
37407;SDS011;24866;50.248;8.252;2023-02-17T06:15:51;3.58;;;2.38;;
37407;SDS011;24866;50.248;8.252;2023-02-17T06:18:21;3.65;;;1.70;;
37407;SDS011;24866;50.248;8.252;2023-02-17T06:20:54;3.25;;;1.95;;
37407;SDS011;24866;50.248;8.252;2023-02-17T06:23:25;3.90;;;1.92;;
37407;SDS011;24866;50.248;8.252;2023-02-17T06:25:55;3.35;;;2.15;;
37407;SDS011;24866;50.248;8.252;2023-02-17T06:28:25;4.25;;;2.33;;
37407;SDS011;24866;50.248;8.252;2023-02-17T06:30:55;2.95;;;1.70;;
37407;SDS011;24866;50.248;8.252;2023-02-17T06:33:26;2.65;;;1.83;;
37407;SDS011;24866;50.248;8.252;2023-02-17T06:35:57;4.18;;;2.15;;
37407;SDS011;24866;50.248;8.252;2023-02-17T06:38:27;3.35;;;2.17;;
37407;SDS011;24866;50.248;8.252;2023-02-17T06:40:57;3.40;;;1.98;;
37407;SDS011;24866;50.248;8.252;2023-02-17T06:43:27;4.45;;;2.65;;
37407;SDS011;24866;50.248;8.252;2023-02-17T06:45:57;3.95;;;2.47;;
37407;SDS011;24866;50.248;8.252;2023-02-17T06:48:26;4.43;;;2.47;;
37407;SDS011;24866;50.248;8.252;2023-02-17T06:51:01;4.13;;;2.50;;
37407;SDS011;24866;50.248;8.252;2023-02-17T06:53:31;3.90;;;2.53;;
37407;SDS011;24866;50.248;8.252;2023-02-17T06:56:01;4.75;;;2.88;;
37407;SDS011;24866;50.248;8.252;2023-02-17T06:58:31;5.63;;;3.33;;
37407;SDS011;24866;50.248;8.252;2023-02-17T07:01:03;4.10;;;2.70;;
37407;SDS011;24866;50.248;8.252;2023-02-17T07:03:35;3.43;;;2.60;;
37407;SDS011;24866;50.248;8.252;2023-02-17T07:06:06;5.05;;;3.03;;
37407;SDS011;24866;50.248;8.252;2023-02-17T07:08:36;5.18;;;3.20;;
37407;SDS011;24866;50.248;8.252;2023-02-17T07:11:06;4.60;;;3.10;;
37407;SDS011;24866;50.248;8.252;2023-02-17T07:13:37;4.78;;;2.75;;
37407;SDS011;24866;50.248;8.252;2023-02-17T07:16:08;5.80;;;3.58;;
37407;SDS011;24866;50.248;8.252;2023-02-17T07:18:38;6.65;;;3.40;;
37407;SDS011;24866;50.248;8.252;2023-02-17T07:21:10;5.22;;;3.47;;
37407;SDS011;24866;50.248;8.252;2023-02-17T07:23:40;5.18;;;3.58;;
37407;SDS011;24866;50.248;8.252;2023-02-17T07:26:10;6.72;;;3.80;;
37407;SDS011;24866;50.248;8.252;2023-02-17T07:28:41;7.45;;;4.85;;
37407;SDS011;24866;50.248;8.252;2023-02-17T07:31:12;7.78;;;4.32;;
37407;SDS011;24866;50.248;8.252;2023-02-17T07:33:43;5.97;;;4.22;;
37407;SDS011;24866;50.248;8.252;2023-02-17T07:36:17;6.43;;;4.57;;
37407;SDS011;24866;50.248;8.252;2023-02-17T07:38:47;7.07;;;4.40;;
37407;SDS011;24866;50.248;8.252;2023-02-17T07:41:18;5.75;;;3.90;;
37407;SDS011;24866;50.248;8.252;2023-02-17T07:43:52;7.53;;;4.43;;
37407;SDS011;24866;50.248;8.252;2023-02-17T07:46:25;7.07;;;4.28;;
37407;SDS011;24866;50.248;8.252;2023-02-17T07:48:55;6.93;;;4.60;;
37407;SDS011;24866;50.248;8.252;2023-02-17T07:51:27;8.55;;;5.03;;
37407;SDS011;24866;50.248;8.252;2023-02-17T07:53:57;7.03;;;5.18;;
37407;SDS011;24866;50.248;8.252;2023-02-17T07:56:27;8.35;;;5.20;;
37407;SDS011;24866;50.248;8.252;2023-02-17T07:58:57;7.75;;;4.78;;
37407;SDS011;24866;50.248;8.252;2023-02-17T08:01:27;8.32;;;5.50;;
37407;SDS011;24866;50.248;8.252;2023-02-17T08:03:57;8.23;;;5.22;;
37407;SDS011;24866;50.248;8.252;2023-02-17T08:06:29;8.13;;;5.53;;
37407;SDS011;24866;50.248;8.252;2023-02-17T08:08:59;8.30;;;5.22;;
37407;SDS011;24866;50.248;8.252;2023-02-17T08:11:47;8.27;;;5.30;;
37407;SDS011;24866;50.248;8.252;2023-02-17T08:14:34;6.70;;;4.63;;
37407;SDS011;24866;50.248;8.252;2023-02-17T08:17:05;6.50;;;4.57;;
37407;SDS011;24866;50.248;8.252;2023-02-17T08:19:36;8.93;;;5.75;;
37407;SDS011;24866;50.248;8.252;2023-02-17T08:22:07;8.15;;;5.40;;
37407;SDS011;24866;50.248;8.252;2023-02-17T08:24:37;8.75;;;5.28;;
37407;SDS011;24866;50.248;8.252;2023-02-17T08:27:07;7.30;;;5.20;;
37407;SDS011;24866;50.248;8.252;2023-02-17T08:29:37;7.20;;;5.00;;
37407;SDS011;24866;50.248;8.252;2023-02-17T08:32:07;8.60;;;5.47;;
37407;SDS011;24866;50.248;8.252;2023-02-17T08:34:37;7.10;;;5.32;;
37407;SDS011;24866;50.248;8.252;2023-02-17T08:37:09;8.13;;;4.85;;
37407;SDS011;24866;50.248;8.252;2023-02-17T08:39:39;7.85;;;4.75;;
37407;SDS011;24866;50.248;8.252;2023-02-17T08:42:09;7.47;;;4.30;;
37407;SDS011;24866;50.248;8.252;2023-02-17T08:44:39;8.20;;;4.50;;
37407;SDS011;24866;50.248;8.252;2023-02-17T08:47:09;9.55;;;5.15;;
37407;SDS011;24866;50.248;8.252;2023-02-17T08:49:39;7.53;;;4.60;;
37407;SDS011;24866;50.248;8.252;2023-02-17T08:52:10;7.70;;;4.60;;
37407;SDS011;24866;50.248;8.252;2023-02-17T08:54:40;8.68;;;5.07;;
37407;SDS011;24866;50.248;8.252;2023-02-17T08:57:10;7.15;;;4.75;;
37407;SDS011;24866;50.248;8.252;2023-02-17T08:59:40;8.30;;;4.63;;
37407;SDS011;24866;50.248;8.252;2023-02-17T09:02:10;10.77;;;5.20;;
37407;SDS011;24866;50.248;8.252;2023-02-17T09:04:40;8.90;;;5.22;;
37407;SDS011;24866;50.248;8.252;2023-02-17T09:07:13;8.50;;;4.60;;
37407;SDS011;24866;50.248;8.252;2023-02-17T09:09:44;8.60;;;5.25;;
37407;SDS011;24866;50.248;8.252;2023-02-17T09:12:14;5.80;;;4.05;;
37407;SDS011;24866;50.248;8.252;2023-02-17T09:14:44;7.13;;;4.80;;
37407;SDS011;24866;50.248;8.252;2023-02-17T09:17:14;6.78;;;4.68;;
37407;SDS011;24866;50.248;8.252;2023-02-17T09:19:44;6.63;;;4.30;;
37407;SDS011;24866;50.248;8.252;2023-02-17T09:22:16;8.23;;;5.00;;
37407;SDS011;24866;50.248;8.252;2023-02-17T09:24:47;5.60;;;3.80;;
37407;SDS011;24866;50.248;8.252;2023-02-17T09:27:18;8.15;;;4.28;;
37407;SDS011;24866;50.248;8.252;2023-02-17T09:29:48;7.43;;;4.30;;
37407;SDS011;24866;50.248;8.252;2023-02-17T09:32:18;6.28;;;4.43;;
37407;SDS011;24866;50.248;8.252;2023-02-17T09:34:48;8.18;;;4.72;;
37407;SDS011;24866;50.248;8.252;2023-02-17T09:37:21;6.18;;;4.15;;
37407;SDS011;24866;50.248;8.252;2023-02-17T09:39:52;6.88;;;3.67;;
37407;SDS011;24866;50.248;8.252;2023-02-17T09:42:23;8.00;;;4.30;;
37407;SDS011;24866;50.248;8.252;2023-02-17T09:44:56;6.70;;;4.00;;
37407;SDS011;24866;50.248;8.252;2023-02-17T09:47:31;6.93;;;4.00;;
37407;SDS011;24866;50.248;8.252;2023-02-17T09:50:07;6.40;;;3.33;;
37407;SDS011;24866;50.248;8.252;2023-02-17T09:52:42;5.10;;;3.22;;
37407;SDS011;24866;50.248;8.252;2023-02-17T09:55:21;5.72;;;3.45;;
37407;SDS011;24866;50.248;8.252;2023-02-17T09:57:56;5.57;;;3.08;;
37407;SDS011;24866;50.248;8.252;2023-02-17T10:00:31;5.22;;;3.40;;
37407;SDS011;24866;50.248;8.252;2023-02-17T10:03:07;5.68;;;2.88;;
37407;SDS011;24866;50.248;8.252;2023-02-17T10:05:45;5.78;;;3.60;;
37407;SDS011;24866;50.248;8.252;2023-02-17T10:08:23;4.18;;;3.03;;
37407;SDS011;24866;50.248;8.252;2023-02-17T10:10:57;6.47;;;3.03;;
37407;SDS011;24866;50.248;8.252;2023-02-17T10:13:31;5.05;;;2.47;;
37407;SDS011;24866;50.248;8.252;2023-02-17T10:16:06;7.03;;;3.38;;
37407;SDS011;24866;50.248;8.252;2023-02-17T10:18:43;5.10;;;2.95;;
37407;SDS011;24866;50.248;8.252;2023-02-17T10:21:17;4.78;;;3.13;;
37407;SDS011;24866;50.248;8.252;2023-02-17T10:23:55;5.28;;;3.35;;
37407;SDS011;24866;50.248;8.252;2023-02-17T10:26:28;6.88;;;3.20;;
37407;SDS011;24866;50.248;8.252;2023-02-17T10:29:19;6.63;;;3.17;;
37407;SDS011;24866;50.248;8.252;2023-02-17T10:32:03;4.88;;;2.83;;
37407;SDS011;24866;50.248;8.252;2023-02-17T10:34:46;5.07;;;3.63;;
37407;SDS011;24866;50.248;8.252;2023-02-17T10:37:27;4.65;;;3.42;;
37407;SDS011;24866;50.248;8.252;2023-02-17T10:40:08;6.05;;;2.85;;
37407;SDS011;24866;50.248;8.252;2023-02-17T10:42:43;5.55;;;3.65;;
37407;SDS011;24866;50.248;8.252;2023-02-17T10:45:19;5.53;;;2.80;;
37407;SDS011;24866;50.248;8.252;2023-02-17T10:47:58;4.57;;;3.10;;
37407;SDS011;24866;50.248;8.252;2023-02-17T10:50:32;4.60;;;2.85;;
37407;SDS011;24866;50.248;8.252;2023-02-17T10:55:46;4.13;;;2.53;;
37407;SDS011;24866;50.248;8.252;2023-02-17T10:58:25;4.13;;;2.90;;
37407;SDS011;24866;50.248;8.252;2023-02-17T11:01:01;4.40;;;2.67;;
37407;SDS011;24866;50.248;8.252;2023-02-17T11:03:33;4.55;;;2.38;;
37407;SDS011;24866;50.248;8.252;2023-02-17T11:06:12;5.13;;;2.42;;
37407;SDS011;24866;50.248;8.252;2023-02-17T11:08:48;5.18;;;2.40;;
37407;SDS011;24866;50.248;8.252;2023-02-17T11:11:21;3.72;;;2.35;;
37407;SDS011;24866;50.248;8.252;2023-02-17T11:13:59;4.20;;;2.33;;
37407;SDS011;24866;50.248;8.252;2023-02-17T11:16:34;2.75;;;1.85;;
37407;SDS011;24866;50.248;8.252;2023-02-17T11:19:06;3.78;;;2.55;;
37407;SDS011;24866;50.248;8.252;2023-02-17T11:21:49;4.07;;;2.63;;
37407;SDS011;24866;50.248;8.252;2023-02-17T11:24:20;4.32;;;2.00;;
37407;SDS011;24866;50.248;8.252;2023-02-17T11:26:56;4.20;;;2.03;;
37407;SDS011;24866;50.248;8.252;2023-02-17T11:29:27;4.10;;;2.67;;
37407;SDS011;24866;50.248;8.252;2023-02-17T11:31:58;3.45;;;1.80;;
37407;SDS011;24866;50.248;8.252;2023-02-17T11:34:32;4.30;;;2.13;;
37407;SDS011;24866;50.248;8.252;2023-02-17T11:37:13;4.03;;;2.50;;
37407;SDS011;24866;50.248;8.252;2023-02-17T11:39:49;3.95;;;2.22;;
37407;SDS011;24866;50.248;8.252;2023-02-17T11:44:55;3.63;;;2.22;;
37407;SDS011;24866;50.248;8.252;2023-02-17T11:47:29;1.83;;;1.30;;
37407;SDS011;24866;50.248;8.252;2023-02-17T11:50:16;3.40;;;2.28;;
37407;SDS011;24866;50.248;8.252;2023-02-17T11:52:55;3.05;;;2.22;;
37407;SDS011;24866;50.248;8.252;2023-02-17T11:55:39;3.25;;;2.00;;
37407;SDS011;24866;50.248;8.252;2023-02-17T11:58:21;2.78;;;1.88;;
37407;SDS011;24866;50.248;8.252;2023-02-17T12:00:59;3.35;;;2.20;;
37407;SDS011;24866;50.248;8.252;2023-02-17T12:03:42;3.80;;;2.58;;
37407;SDS011;24866;50.248;8.252;2023-02-17T12:06:32;4.18;;;2.40;;
37407;SDS011;24866;50.248;8.252;2023-02-17T12:09:11;2.97;;;1.92;;
37407;SDS011;24866;50.248;8.252;2023-02-17T12:11:48;3.25;;;1.90;;
37407;SDS011;24866;50.248;8.252;2023-02-17T12:14:39;3.70;;;1.95;;
37407;SDS011;24866;50.248;8.252;2023-02-17T12:17:20;2.83;;;1.95;;
37407;SDS011;24866;50.248;8.252;2023-02-17T12:20:01;3.45;;;2.28;;
37407;SDS011;24866;50.248;8.252;2023-02-17T12:22:44;2.42;;;1.90;;
37407;SDS011;24866;50.248;8.252;2023-02-17T12:25:23;2.80;;;1.80;;
37407;SDS011;24866;50.248;8.252;2023-02-17T12:27:59;2.75;;;1.67;;
37407;SDS011;24866;50.248;8.252;2023-02-17T12:30:43;2.22;;;1.27;;
37407;SDS011;24866;50.248;8.252;2023-02-17T12:33:25;2.83;;;1.58;;
37407;SDS011;24866;50.248;8.252;2023-02-17T12:36:08;2.88;;;1.27;;
37407;SDS011;24866;50.248;8.252;2023-02-17T12:38:40;2.38;;;1.40;;
37407;SDS011;24866;50.248;8.252;2023-02-17T12:41:14;1.75;;;1.00;;
37407;SDS011;24866;50.248;8.252;2023-02-17T12:43:48;1.75;;;0.90;;
37407;SDS011;24866;50.248;8.252;2023-02-17T12:46:22;3.35;;;1.02;;
37407;SDS011;24866;50.248;8.252;2023-02-17T12:48:55;2.28;;;1.02;;
37407;SDS011;24866;50.248;8.252;2023-02-17T12:51:29;1.88;;;1.08;;
37407;SDS011;24866;50.248;8.252;2023-02-17T12:54:04;1.63;;;0.93;;
37407;SDS011;24866;50.248;8.252;2023-02-17T12:56:43;1.27;;;0.90;;
37407;SDS011;24866;50.248;8.252;2023-02-17T12:59:20;1.48;;;1.02;;
37407;SDS011;24866;50.248;8.252;2023-02-17T13:01:57;2.85;;;1.00;;
37407;SDS011;24866;50.248;8.252;2023-02-17T13:04:30;1.50;;;0.90;;
37407;SDS011;24866;50.248;8.252;2023-02-17T13:07:07;1.88;;;0.90;;
37407;SDS011;24866;50.248;8.252;2023-02-17T13:09:57;3.90;;;0.88;;
37407;SDS011;24866;50.248;8.252;2023-02-17T13:12:35;1.10;;;0.70;;
37407;SDS011;24866;50.248;8.252;2023-02-17T13:15:25;1.35;;;0.55;;
37407;SDS011;24866;50.248;8.252;2023-02-17T13:17:59;2.10;;;0.70;;
37407;SDS011;24866;50.248;8.252;2023-02-17T13:23:37;1.30;;;0.73;;
37407;SDS011;24866;50.248;8.252;2023-02-17T13:26:23;1.30;;;0.65;;
37407;SDS011;24866;50.248;8.252;2023-02-17T13:29:16;1.23;;;0.63;;
37407;SDS011;24866;50.248;8.252;2023-02-17T13:31:51;2.22;;;0.80;;
37407;SDS011;24866;50.248;8.252;2023-02-17T13:34:25;1.30;;;0.95;;
37407;SDS011;24866;50.248;8.252;2023-02-17T13:37:12;1.60;;;0.55;;
37407;SDS011;24866;50.248;8.252;2023-02-17T13:39:44;1.13;;;0.60;;
37407;SDS011;24866;50.248;8.252;2023-02-17T13:42:35;1.77;;;0.75;;
37407;SDS011;24866;50.248;8.252;2023-02-17T13:45:11;1.13;;;0.60;;
37407;SDS011;24866;50.248;8.252;2023-02-17T13:47:53;1.65;;;0.57;;
37407;SDS011;24866;50.248;8.252;2023-02-17T13:50:28;1.40;;;0.60;;
37407;SDS011;24866;50.248;8.252;2023-02-17T13:53:01;2.22;;;0.77;;
37407;SDS011;24866;50.248;8.252;2023-02-17T13:55:47;0.90;;;0.32;;
37407;SDS011;24866;50.248;8.252;2023-02-17T13:58:21;1.65;;;0.77;;
37407;SDS011;24866;50.248;8.252;2023-02-17T14:00:55;1.58;;;0.60;;
37407;SDS011;24866;50.248;8.252;2023-02-17T14:03:26;1.17;;;0.60;;
37407;SDS011;24866;50.248;8.252;2023-02-17T14:08:32;0.70;;;0.43;;
37407;SDS011;24866;50.248;8.252;2023-02-17T14:11:07;1.17;;;0.50;;
37407;SDS011;24866;50.248;8.252;2023-02-17T14:13:41;1.13;;;0.60;;
37407;SDS011;24866;50.248;8.252;2023-02-17T14:16:24;0.95;;;0.60;;
37407;SDS011;24866;50.248;8.252;2023-02-17T14:19:02;1.27;;;0.65;;
37407;SDS011;24866;50.248;8.252;2023-02-17T14:21:38;1.50;;;0.70;;
37407;SDS011;24866;50.248;8.252;2023-02-17T14:24:22;0.82;;;0.55;;
37407;SDS011;24866;50.248;8.252;2023-02-17T14:26:55;1.42;;;0.70;;
37407;SDS011;24866;50.248;8.252;2023-02-17T14:29:39;1.63;;;0.40;;
37407;SDS011;24866;50.248;8.252;2023-02-17T14:32:28;1.50;;;0.60;;
37407;SDS011;24866;50.248;8.252;2023-02-17T14:35:07;1.30;;;0.63;;
37407;SDS011;24866;50.248;8.252;2023-02-17T14:37:51;0.95;;;0.60;;
37407;SDS011;24866;50.248;8.252;2023-02-17T14:42:53;1.23;;;0.70;;
37407;SDS011;24866;50.248;8.252;2023-02-17T14:45:24;1.38;;;0.70;;
37407;SDS011;24866;50.248;8.252;2023-02-17T14:47:54;1.27;;;0.80;;
37407;SDS011;24866;50.248;8.252;2023-02-17T14:50:25;0.93;;;0.50;;
37407;SDS011;24866;50.248;8.252;2023-02-17T14:52:56;0.63;;;0.47;;
37407;SDS011;24866;50.248;8.252;2023-02-17T14:55:29;0.85;;;0.45;;
37407;SDS011;24866;50.248;8.252;2023-02-17T14:58:03;0.85;;;0.57;;
37407;SDS011;24866;50.248;8.252;2023-02-17T15:00:33;1.80;;;0.60;;
37407;SDS011;24866;50.248;8.252;2023-02-17T15:03:03;1.95;;;0.70;;
37407;SDS011;24866;50.248;8.252;2023-02-17T15:05:33;2.92;;;0.50;;
37407;SDS011;24866;50.248;8.252;2023-02-17T15:08:07;1.15;;;0.70;;
37407;SDS011;24866;50.248;8.252;2023-02-17T15:10:39;1.50;;;0.50;;
37407;SDS011;24866;50.248;8.252;2023-02-17T15:13:11;1.13;;;0.50;;
37407;SDS011;24866;50.248;8.252;2023-02-17T15:15:43;1.83;;;0.70;;
37407;SDS011;24866;50.248;8.252;2023-02-17T15:18:15;3.15;;;0.47;;
37407;SDS011;24866;50.248;8.252;2023-02-17T15:20:47;1.05;;;0.40;;
37407;SDS011;24866;50.248;8.252;2023-02-17T15:23:21;1.00;;;0.40;;
37407;SDS011;24866;50.248;8.252;2023-02-17T15:25:54;1.20;;;0.50;;
37407;SDS011;24866;50.248;8.252;2023-02-17T15:28:24;1.20;;;0.60;;
37407;SDS011;24866;50.248;8.252;2023-02-17T15:30:54;2.28;;;0.68;;
37407;SDS011;24866;50.248;8.252;2023-02-17T15:33:25;1.27;;;0.50;;
37407;SDS011;24866;50.248;8.252;2023-02-17T15:35:55;1.35;;;0.70;;
37407;SDS011;24866;50.248;8.252;2023-02-17T15:38:26;2.65;;;0.70;;
37407;SDS011;24866;50.248;8.252;2023-02-17T15:40:56;1.73;;;0.57;;
37407;SDS011;24866;50.248;8.252;2023-02-17T15:43:29;0.98;;;0.40;;
37407;SDS011;24866;50.248;8.252;2023-02-17T15:46:03;0.68;;;0.30;;
37407;SDS011;24866;50.248;8.252;2023-02-17T15:48:39;1.13;;;0.55;;
37407;SDS011;24866;50.248;8.252;2023-02-17T15:51:10;1.10;;;0.60;;
37407;SDS011;24866;50.248;8.252;2023-02-17T15:53:44;2.00;;;0.80;;